Time;durP1;ratioP1;P1;durP2;ratioP2;P2;SDS_P1;SDS_P2;PMS_P1;PMS_P2;Temp;Humidity;BMP_temperature;BMP_pressure;BME280_temperature;BME280_humidity;BME280_pressure;Samples;Min_cycle;Max_cycle;Signal;HPM_P1;HPM_P2
2021/07/12 00:00:10;;;;;;;11.32;8.82;;;26.70;62.70;;;;;;5058444;28;20304;-47
2021/07/12 00:02:36;;;;;;;11.38;8.57;;;26.70;62.90;;;;;;5057746;28;20040;-51
2021/07/12 00:05:04;;;;;;;10.38;8.75;;;26.70;62.80;;;;;;5058258;28;20036;-39
2021/07/12 00:07:29;;;;;;;9.40;8.50;;;26.60;62.60;;;;;;5057807;28;20060;-39
2021/07/12 00:09:55;;;;;;;11.10;8.57;;;26.60;62.80;;;;;;5058187;28;20060;-51
2021/07/12 00:12:21;;;;;;;10.23;8.73;;;26.60;63.00;;;;;;5057283;28;20091;-50
2021/07/12 00:14:46;;;;;;;11.27;9.25;;;26.50;62.90;;;;;;5058054;28;20021;-48
2021/07/12 00:17:12;;;;;;;12.88;9.65;;;26.50;63.10;;;;;;5057870;28;20033;-41
2021/07/12 00:19:38;;;;;;;11.48;9.32;;;26.50;63.30;;;;;;5057785;28;20032;-39
2021/07/12 00:22:03;;;;;;;10.98;8.70;;;26.40;63.20;;;;;;5057842;28;20037;-39
2021/07/12 00:24:29;;;;;;;9.93;8.88;;;26.40;63.20;;;;;;5057981;28;20064;-39
2021/07/12 00:26:55;;;;;;;13.32;8.70;;;26.40;63.20;;;;;;5057665;28;20037;-50
2021/07/12 00:29:20;;;;;;;9.90;8.88;;;26.30;63.30;;;;;;5057336;28;20048;-46
2021/07/12 00:31:46;;;;;;;12.38;8.82;;;26.30;63.50;;;;;;5057607;28;20037;-39
2021/07/12 00:34:12;;;;;;;13.18;9.60;;;26.30;63.60;;;;;;5057250;28;20099;-39
2021/07/12 00:36:37;;;;;;;13.38;9.07;;;26.20;63.60;;;;;;5057595;28;20037;-41
2021/07/12 00:39:04;;;;;;;10.32;8.75;;;26.20;64.10;;;;;;5057227;28;20017;-47
2021/07/12 00:41:30;;;;;;;11.88;8.95;;;26.20;64.20;;;;;;5057159;28;20346;-46
2021/07/12 00:43:56;;;;;;;12.30;8.75;;;26.10;64.20;;;;;;5057005;28;20043;-39
2021/07/12 00:46:22;;;;;;;11.65;9.15;;;26.10;64.40;;;;;;5057133;28;20040;-47
2021/07/12 00:48:47;;;;;;;11.00;9.65;;;26.00;64.40;;;;;;5056828;28;20029;-39
2021/07/12 00:51:14;;;;;;;11.07;9.73;;;26.00;64.40;;;;;;5057077;28;20025;-47
2021/07/12 00:53:40;;;;;;;14.00;9.43;;;25.90;64.60;;;;;;5056792;28;20025;-40
2021/07/12 00:56:08;;;;;;;10.63;9.52;;;25.90;64.80;;;;;;5057019;28;20082;-39
2021/07/12 00:58:33;;;;;;;12.45;9.68;;;25.90;65.00;;;;;;5056753;28;20025;-43
2021/07/12 01:01:04;;;;;;;11.52;10.05;;;25.80;64.90;;;;;;5057048;28;20035;-41
2021/07/12 01:03:29;;;;;;;;;;;25.80;65.10;;;;;;5056296;28;20457;-47
2021/07/12 01:05:56;;;;;;;11.82;10.10;;;25.70;64.70;;;;;;5056991;28;20015;-39
2021/07/12 01:08:22;;;;;;;12.30;9.85;;;25.60;65.20;;;;;;5056495;28;20056;-47
2021/07/12 01:11:06;;;;;;;12.45;10.55;;;25.60;65.40;;;;;;5056720;28;20465;-39
2021/07/12 01:14:01;;;;;;;15.27;11.82;;;25.60;65.50;;;;;;5056399;28;20025;-46
2021/07/12 01:17:08;;;;;;;12.60;10.35;;;25.60;65.70;;;;;;5056600;28;20106;-39
2021/07/12 01:20:05;;;;;;;12.88;10.38;;;25.50;65.80;;;;;;5040587;28;20317;-46
2021/07/12 01:23:08;;;;;;;12.52;11.20;;;25.40;66.00;;;;;;5056563;28;20302;-48
2021/07/12 01:26:22;;;;;;;11.98;10.52;;;25.40;66.10;;;;;;5057050;28;20047;-39
2021/07/12 01:29:07;;;;;;;12.68;11.40;;;25.30;66.20;;;;;;5055979;28;20040;-39
2021/07/12 01:31:50;;;;;;;12.25;10.77;;;25.20;66.50;;;;;;5056586;28;20303;-50
2021/07/12 01:34:38;;;;;;;12.38;11.10;;;25.20;66.60;;;;;;5056214;28;20032;-50
2021/07/12 01:37:22;;;;;;;18.75;11.68;;;25.20;66.60;;;;;;5056092;28;20029;-39
2021/07/12 01:39:57;;;;;;;12.43;10.73;;;25.10;66.90;;;;;;5056493;28;20025;-49
2021/07/12 01:42:33;;;;;;;12.88;11.52;;;25.00;67.10;;;;;;5055690;28;20217;-46
2021/07/12 01:45:04;;;;;;;12.13;10.80;;;25.00;67.30;;;;;;5056271;28;20079;-40
2021/07/12 01:47:45;;;;;;;12.95;10.65;;;25.00;67.40;;;;;;5055669;28;20040;-46
2021/07/12 01:50:26;;;;;;;16.05;13.18;;;24.90;67.40;;;;;;5056426;28;20033;-39
2021/07/12 01:53:03;;;;;;;13.60;11.15;;;24.90;67.40;;;;;;5055830;28;20025;-48
2021/07/12 01:55:57;;;;;;;13.18;11.80;;;24.80;67.50;;;;;;5056505;28;20421;-39
2021/07/12 01:58:50;;;;;;;17.88;14.13;;;24.80;67.50;;;;;;5055856;28;20401;-47
2021/07/12 02:01:19;;;;;;;20.17;13.38;;;24.80;67.80;;;;;;5048876;28;20033;-39
2021/07/12 02:03:47;;;;;;;16.95;13.27;;;24.80;67.90;;;;;;5055490;28;20028;-47
2021/07/12 02:06:15;;;;;;;17.52;12.23;;;24.70;68.10;;;;;;5055690;28;20033;-40
2021/07/12 02:08:47;;;;;;;13.57;12.18;;;24.70;68.20;;;;;;5055490;28;20039;-46
2021/07/12 02:11:16;;;;;;;15.30;12.27;;;24.70;68.20;;;;;;5055762;28;20036;-47
2021/07/12 02:13:49;;;;;;;14.88;11.63;;;24.70;68.50;;;;;;5055475;28;20033;-39
2021/07/12 02:16:17;;;;;;;12.98;11.63;;;24.60;68.40;;;;;;5056012;28;20377;-40
2021/07/12 02:18:43;;;;;;;14.60;11.50;;;24.70;68.50;;;;;;5055440;28;20104;-39
2021/07/12 02:21:11;;;;;;;14.15;12.27;;;24.60;68.60;;;;;;5055569;28;20033;-46
2021/07/12 02:23:40;;;;;;;15.07;12.25;;;24.60;68.80;;;;;;5055448;28;20036;-47
2021/07/12 02:26:06;;;;;;;13.30;11.88;;;24.60;68.70;;;;;;5055525;28;20108;-45
2021/07/12 02:28:33;;;;;;;15.18;12.68;;;24.60;68.80;;;;;;5055389;28;20029;-49
2021/07/12 02:31:00;;;;;;;13.85;12.35;;;24.60;69.00;;;;;;5055594;28;20025;-40
2021/07/12 02:33:27;;;;;;;14.68;13.15;;;24.60;69.20;;;;;;5055124;28;20082;-50
2021/07/12 02:35:56;;;;;;;14.45;13.05;;;24.60;69.40;;;;;;5055320;28;20406;-46
2021/07/12 02:38:23;;;;;;;13.80;12.40;;;24.60;69.30;;;;;;5055506;28;20161;-39
2021/07/12 02:40:50;;;;;;;19.17;12.02;;;24.60;69.40;;;;;;5055210;28;20098;-39
2021/07/12 02:43:16;;;;;;;14.27;12.77;;;24.60;69.50;;;;;;5055085;28;20025;-48
2021/07/12 02:45:44;;;;;;;14.77;13.00;;;24.70;69.70;;;;;;5055326;28;20090;-40
2021/07/12 02:48:10;;;;;;;15.27;13.13;;;24.70;69.90;;;;;;5055164;28;20079;-39
2021/07/12 02:50:39;;;;;;;14.02;12.07;;;24.70;70.10;;;;;;5055812;28;20041;-45
2021/07/12 02:53:17;;;;;;;13.82;12.40;;;24.70;70.20;;;;;;5055045;28;20033;-47
2021/07/12 02:55:43;;;;;;;14.13;12.52;;;24.80;70.30;;;;;;5055227;28;20328;-50
2021/07/12 02:58:09;;;;;;;13.73;12.32;;;24.80;70.40;;;;;;5055382;28;20117;-48
2021/07/12 03:00:34;;;;;;;16.02;12.65;;;24.80;70.50;;;;;;5055643;28;20021;-47
2021/07/12 03:03:00;;;;;;;15.52;13.02;;;24.80;70.50;;;;;;5055070;28;20091;-39
2021/07/12 03:05:26;;;;;;;14.05;12.43;;;24.80;70.80;;;;;;5055759;28;20313;-42
2021/07/12 03:08:19;;;;;;;15.52;13.70;;;24.80;71.00;;;;;;5055003;28;20120;-39
2021/07/12 03:10:51;;;;;;;14.30;12.80;;;24.90;71.10;;;;;;5055105;28;20040;-47
2021/07/12 03:13:24;;;;;;;15.75;12.68;;;24.90;71.20;;;;;;5054955;28;20052;-49
2021/07/12 03:15:52;;;;;;;16.98;12.27;;;24.90;71.30;;;;;;5055085;28;20040;-50
2021/07/12 03:18:25;;;;;;;13.40;12.00;;;24.90;71.00;;;;;;5054632;28;20029;-47
2021/07/12 03:20:54;;;;;;;13.20;11.90;;;24.90;71.00;;;;;;5055306;28;20029;-40
2021/07/12 03:23:21;;;;;;;15.32;11.60;;;24.90;70.70;;;;;;5054707;28;20111;-40
2021/07/12 03:25:58;;;;;;;12.43;10.80;;;25.00;70.70;;;;;;5055702;28;20043;-40
2021/07/12 03:28:24;;;;;;;13.60;11.02;;;25.00;70.70;;;;;;5058647;28;20025;-39
2021/07/12 03:30:50;;;;;;;11.10;9.60;;;25.00;70.60;;;;;;5058713;28;20299;-40
2021/07/12 03:33:20;;;;;;;11.95;10.68;;;25.00;70.10;;;;;;5058202;28;20025;-47
2021/07/12 03:35:48;;;;;;;10.77;9.65;;;25.00;70.40;;;;;;5058857;28;20040;-46
2021/07/12 03:38:17;;;;;;;13.27;9.90;;;25.10;70.20;;;;;;5058347;28;20025;-47
2021/07/12 03:40:44;;;;;;;10.68;9.57;;;25.10;69.70;;;;;;5058212;28;20048;-41
2021/07/12 03:43:12;;;;;;;10.32;9.30;;;25.20;69.50;;;;;;5058399;28;20037;-47
2021/07/12 03:45:38;;;;;;;10.57;9.43;;;25.20;69.10;;;;;;5058754;28;20033;-41
2021/07/12 03:48:08;;;;;;;11.02;9.20;;;25.30;69.60;;;;;;5058112;28;20447;-40
2021/07/12 03:50:35;;;;;;;12.18;9.25;;;25.40;69.50;;;;;;5058672;28;20508;-40
2021/07/12 03:53:02;;;;;;;10.43;9.38;;;25.40;69.60;;;;;;5057824;28;20302;-40
2021/07/12 03:55:30;;;;;;;9.57;8.57;;;25.50;69.80;;;;;;5058602;28;20021;-51
2021/07/12 03:57:58;;;;;;;12.43;9.93;;;25.60;70.30;;;;;;5057790;28;20040;-48
2021/07/12 04:00:26;;;;;;;11.70;8.70;;;25.60;69.60;;;;;;5058300;28;20027;-41
2021/07/12 04:02:52;;;;;;;11.73;9.07;;;25.70;69.50;;;;;;5057467;28;20033;-50
2021/07/12 04:05:28;;;;;;;10.00;8.38;;;25.80;69.00;;;;;;5058355;28;20082;-42
2021/07/12 04:07:55;;;;;;;11.70;9.52;;;25.90;68.90;;;;;;5057590;28;20391;-39
2021/07/12 04:10:21;;;;;;;11.27;9.10;;;25.90;69.10;;;;;;5058266;28;20029;-47
2021/07/12 04:12:47;;;;;;;10.15;8.55;;;25.90;69.20;;;;;;5057761;28;20062;-39
2021/07/12 04:15:15;;;;;;;13.13;9.43;;;26.00;68.50;;;;;;5058012;28;20025;-51
2021/07/12 04:17:41;;;;;;;11.05;9.82;;;26.10;68.20;;;;;;5057232;28;20040;-54
2021/07/12 04:20:08;;;;;;;10.75;9.35;;;26.10;67.90;;;;;;5057693;28;20075;-46
2021/07/12 04:22:34;;;;;;;13.10;9.57;;;26.20;67.80;;;;;;5057327;28;20076;-41
2021/07/12 04:25:00;;;;;;;12.65;9.70;;;26.20;67.70;;;;;;5057802;28;20388;-40
2021/07/12 04:27:25;;;;;;;11.88;9.50;;;26.20;68.10;;;;;;5057128;28;20033;-41
2021/07/12 04:29:51;;;;;;;14.32;10.13;;;26.30;67.70;;;;;;5055899;28;20120;-40
2021/07/12 04:32:17;;;;;;;11.10;9.90;;;26.30;67.50;;;;;;5055768;28;20037;-40
2021/07/12 04:34:43;;;;;;;10.55;8.75;;;26.30;67.30;;;;;;5075290;28;20064;-39
2021/07/12 04:37:09;;;;;;;12.85;10.25;;;26.40;67.20;;;;;;5070899;28;20020;-41
2021/07/12 04:39:35;;;;;;;14.80;10.93;;;26.40;67.10;;;;;;5070803;28;20057;-48
2021/07/12 04:42:01;;;;;;;13.40;9.82;;;26.50;67.00;;;;;;5064802;28;20057;-41
2021/07/12 04:44:27;;;;;;;12.02;9.93;;;26.50;66.60;;;;;;5076951;28;20035;-39
2021/07/12 04:46:53;;;;;;;14.05;9.90;;;26.50;66.30;;;;;;5077080;28;20313;-48
2021/07/12 04:49:19;;;;;;;13.05;10.00;;;26.60;66.30;;;;;;5076628;28;20136;-47
2021/07/12 04:51:44;;;;;;;24.55;10.90;;;26.60;66.30;;;;;;5076920;28;20107;-49
2021/07/12 04:54:11;;;;;;;11.13;9.77;;;26.70;66.50;;;;;;5076507;28;20079;-50
2021/07/12 04:56:37;;;;;;;19.35;10.68;;;26.80;66.40;;;;;;5076653;28;20033;-39
2021/07/12 04:59:08;;;;;;;13.55;9.93;;;26.80;65.80;;;;;;5076674;28;20035;-40
2021/07/12 05:01:35;;;;;;;11.70;9.98;;;26.90;65.50;;;;;;5076614;28;20033;-41
2021/07/12 05:04:02;;;;;;;15.95;10.05;;;27.00;65.30;;;;;;5076182;28;20518;-39
2021/07/12 05:06:28;;;;;;;13.30;10.30;;;27.00;65.20;;;;;;5075503;28;20040;-48
2021/07/12 05:08:55;;;;;;;12.50;9.57;;;27.00;65.00;;;;;;5075824;28;20029;-40
2021/07/12 05:11:21;;;;;;;12.60;10.50;;;27.10;65.40;;;;;;5076621;28;20047;-41
2021/07/12 05:13:47;;;;;;;12.90;10.98;;;27.10;64.90;;;;;;5076080;28;20029;-48
2021/07/12 05:16:13;;;;;;;13.35;11.15;;;27.20;64.90;;;;;;5072953;28;20029;-47
2021/07/12 05:18:39;;;;;;;14.25;11.13;;;27.20;65.00;;;;;;5064461;28;20074;-48
2021/07/12 05:21:05;;;;;;;14.77;10.90;;;27.20;64.80;;;;;;5064965;28;20410;-47
2021/07/12 05:23:31;;;;;;;13.70;11.80;;;27.20;64.80;;;;;;5056128;28;20033;-48
2021/07/12 05:25:56;;;;;;;14.00;10.60;;;27.30;65.00;;;;;;5063768;28;20480;-40
2021/07/12 05:28:22;;;;;;;11.55;10.35;;;27.30;64.80;;;;;;5067506;28;20115;-49
2021/07/12 05:30:49;;;;;;;11.93;10.70;;;27.30;64.80;;;;;;5055994;28;20033;-52
2021/07/12 05:33:14;;;;;;;13.13;11.82;;;27.30;64.70;;;;;;5055659;28;20448;-40
2021/07/12 05:35:40;;;;;;;17.13;11.77;;;27.30;64.80;;;;;;5056430;28;20032;-40
2021/07/12 05:38:07;;;;;;;12.43;11.07;;;27.30;64.70;;;;;;5055705;28;20082;-40
2021/07/12 05:40:33;;;;;;;14.07;11.25;;;27.40;64.80;;;;;;5056085;28;20047;-40
2021/07/12 05:42:59;;;;;;;13.48;11.85;;;27.40;64.90;;;;;;5055643;28;20123;-50
2021/07/12 05:45:24;;;;;;;13.85;12.45;;;27.40;64.50;;;;;;5056235;28;20037;-51
2021/07/12 05:47:50;;;;;;;16.08;12.57;;;27.40;64.40;;;;;;5055012;28;20032;-49
2021/07/12 05:50:16;;;;;;;12.95;11.55;;;27.40;64.70;;;;;;5055897;28;20082;-52
2021/07/12 05:52:41;;;;;;;17.70;12.07;;;27.40;64.60;;;;;;5055652;28;20033;-48
2021/07/12 05:55:08;;;;;;;12.32;11.02;;;27.30;64.70;;;;;;5056551;28;20064;-40
2021/07/12 05:57:34;;;;;;;18.10;13.75;;;27.40;64.90;;;;;;5065993;28;20368;-50
2021/07/12 05:59:59;;;;;;;17.10;12.13;;;27.40;64.90;;;;;;5055882;28;20021;-50
2021/07/12 06:02:25;;;;;;;14.75;12.32;;;27.40;64.90;;;;;;5055527;28;20041;-50
2021/07/12 06:04:51;;;;;;;14.85;11.82;;;27.40;64.70;;;;;;5055856;28;20175;-43
2021/07/12 06:07:16;;;;;;;17.02;13.02;;;27.50;64.80;;;;;;5055325;28;20127;-41
2021/07/12 06:09:42;;;;;;;14.48;12.98;;;27.50;64.80;;;;;;5055686;28;20032;-41
2021/07/12 06:12:08;;;;;;;14.38;12.82;;;27.60;65.00;;;;;;5055254;28;20029;-42
2021/07/12 06:14:33;;;;;;;15.65;13.20;;;27.60;65.00;;;;;;5055464;28;20029;-40
2021/07/12 06:16:59;;;;;;;15.82;13.32;;;27.70;65.10;;;;;;5055442;28;20310;-45
2021/07/12 06:19:25;;;;;;;18.65;13.35;;;27.70;64.90;;;;;;5055651;28;20024;-47
2021/07/12 06:21:50;;;;;;;15.55;13.57;;;27.80;64.90;;;;;;5055228;28;20421;-47
2021/07/12 06:24:16;;;;;;;17.73;13.07;;;27.80;65.10;;;;;;5055232;28;20025;-48
2021/07/12 06:26:42;;;;;;;14.50;13.00;;;27.90;64.70;;;;;;5055483;28;20120;-48
2021/07/12 06:29:08;;;;;;;15.45;12.13;;;28.00;64.50;;;;;;5054993;28;20412;-47
2021/07/12 06:31:33;;;;;;;16.85;12.50;;;28.00;64.40;;;;;;5055106;28;20427;-47
2021/07/12 06:33:59;;;;;;;15.80;14.00;;;28.10;64.60;;;;;;5054961;28;20029;-49
2021/07/12 06:36:25;;;;;;;16.52;12.48;;;28.10;64.30;;;;;;5055524;28;20068;-40
2021/07/12 06:38:50;;;;;;;18.27;13.10;;;28.20;64.00;;;;;;5055121;28;20021;-49
2021/07/12 06:41:16;;;;;;;14.38;12.23;;;28.20;64.00;;;;;;5055334;28;20498;-41
2021/07/12 06:43:43;;;;;;;15.05;11.85;;;28.30;63.90;;;;;;5054636;28;20052;-41
2021/07/12 06:46:08;;;;;;;14.85;13.25;;;28.30;63.70;;;;;;5055508;28;20373;-39
2021/07/12 06:48:34;;;;;;;16.67;12.98;;;28.30;63.60;;;;;;5054989;28;20029;-40
2021/07/12 06:51:00;;;;;;;15.70;12.60;;;28.40;63.50;;;;;;5055116;28;20078;-41
2021/07/12 06:53:26;;;;;;;16.10;12.90;;;28.40;63.50;;;;;;5064889;28;20036;-48
2021/07/12 06:55:52;;;;;;;18.45;16.45;;;28.40;63.50;;;;;;5058377;28;20184;-48
2021/07/12 06:58:17;;;;;;;19.52;13.48;;;28.40;64.30;;;;;;5057296;28;20316;-41
2021/07/12 07:00:43;;;;;;;13.70;12.27;;;28.40;63.90;;;;;;5065053;28;20423;-41
2021/07/12 07:03:09;;;;;;;15.88;12.70;;;28.50;63.70;;;;;;5069536;28;20436;-50
2021/07/12 07:05:35;;;;;;;13.40;12.00;;;28.50;63.70;;;;;;5059080;28;20032;-48
2021/07/12 07:08:02;;;;;;;14.60;12.63;;;28.50;63.80;;;;;;5058228;28;20032;-49
2021/07/12 07:10:28;;;;;;;16.75;12.63;;;28.60;63.80;;;;;;5061156;28;20154;-50
2021/07/12 07:15:23;;;;;;;19.65;12.95;;;28.70;63.70;;;;;;5011792;28;20046;-50
2021/07/12 07:17:49;;;;;;;16.83;12.57;;;28.80;63.60;;;;;;5017687;28;20129;-48
2021/07/12 07:20:15;;;;;;;20.80;13.48;;;28.80;63.90;;;;;;5010316;28;20033;-49
2021/07/12 07:22:40;;;;;;;15.02;13.23;;;28.90;63.40;;;;;;5018666;28;20325;-48
2021/07/12 07:25:06;;;;;;;14.65;12.40;;;29.00;63.70;;;;;;5018204;28;20049;-40
2021/07/12 07:27:32;;;;;;;14.52;12.63;;;29.00;63.90;;;;;;5018513;28;20029;-51
2021/07/12 07:29:58;;;;;;;19.40;13.95;;;29.10;63.50;;;;;;5017813;28;20037;-51
2021/07/12 07:32:24;;;;;;;16.73;13.73;;;29.20;63.30;;;;;;5018513;28;20433;-50
2021/07/12 07:34:50;;;;;;;15.35;13.25;;;29.20;62.90;;;;;;5017686;28;20026;-42
2021/07/12 07:37:16;;;;;;;15.02;12.98;;;29.30;63.70;;;;;;5018073;28;20329;-41
2021/07/12 07:39:42;;;;;;;16.33;14.18;;;29.30;63.20;;;;;;5017473;28;20385;-43
2021/07/12 07:42:08;;;;;;;17.50;13.20;;;29.40;63.10;;;;;;5018257;28;20034;-40
2021/07/12 07:44:34;;;;;;;15.73;14.05;;;29.40;63.00;;;;;;5017524;28;20045;-41
2021/07/12 07:47:00;;;;;;;14.48;12.27;;;29.40;63.30;;;;;;5018447;28;20026;-41
2021/07/12 07:49:25;;;;;;;15.30;13.27;;;29.50;63.20;;;;;;5017439;28;20375;-41
2021/07/12 07:51:51;;;;;;;15.38;13.77;;;29.50;62.60;;;;;;5018362;28;20029;-48
2021/07/12 07:54:17;;;;;;;15.55;13.52;;;29.60;62.60;;;;;;5017847;28;20050;-50
2021/07/12 07:56:43;;;;;;;15.50;12.68;;;29.60;63.20;;;;;;5017618;28;20029;-48
2021/07/12 07:59:08;;;;;;;17.30;12.48;;;29.60;62.60;;;;;;5017162;28;20030;-51
2021/07/12 08:01:34;;;;;;;16.50;12.43;;;29.70;62.40;;;;;;5017369;28;20045;-41
2021/07/12 08:04:00;;;;;;;13.27;11.88;;;29.80;62.10;;;;;;5017535;28;20689;-52
2021/07/12 08:06:26;;;;;;;13.85;12.45;;;29.80;61.90;;;;;;5017307;28;20034;-42
2021/07/12 08:08:52;;;;;;;12.18;10.98;;;29.90;62.10;;;;;;5016884;28;20401;-43
2021/07/12 08:11:18;;;;;;;14.43;12.10;;;30.00;61.80;;;;;;5017796;28;20404;-51
2021/07/12 08:13:44;;;;;;;12.55;11.20;;;30.10;61.60;;;;;;5017242;28;20042;-41
2021/07/12 08:16:09;;;;;;;11.90;10.60;;;30.10;61.40;;;;;;5018160;28;20362;-49
2021/07/12 08:18:36;;;;;;;17.60;12.85;;;30.20;60.70;;;;;;5017476;28;20038;-52
2021/07/12 08:21:03;;;;;;;21.33;12.25;;;30.30;60.40;;;;;;5017860;28;20098;-51
2021/07/12 08:23:28;;;;;;;11.40;10.20;;;30.40;59.60;;;;;;5016799;28;20037;-42
2021/07/12 08:25:54;;;;;;;12.40;10.30;;;30.50;59.90;;;;;;5017371;28;20030;-42
2021/07/12 08:28:24;;;;;;;22.45;10.63;;;30.60;59.70;;;;;;5017718;28;20120;-42
2021/07/12 08:30:50;;;;;;;13.48;10.50;;;30.60;58.70;;;;;;5017828;28;20033;-43
2021/07/12 08:33:16;;;;;;;11.52;10.15;;;30.60;58.70;;;;;;5017475;28;20038;-43
2021/07/12 08:35:42;;;;;;;16.52;10.13;;;30.70;59.10;;;;;;5017414;28;20372;-41
2021/07/12 08:38:08;;;;;;;14.38;10.43;;;30.70;59.20;;;;;;5017452;28;20279;-48
2021/07/12 08:40:33;;;;;;;12.70;10.30;;;30.70;58.90;;;;;;5017526;28;20022;-41
2021/07/12 08:42:59;;;;;;;14.60;11.70;;;30.70;58.90;;;;;;5017475;28;20322;-41
2021/07/12 08:45:27;;;;;;;14.10;11.02;;;30.70;58.70;;;;;;5017100;28;20030;-52
2021/07/12 08:47:53;;;;;;;12.10;10.85;;;30.70;58.30;;;;;;5016996;28;20056;-44
2021/07/12 08:50:21;;;;;;;12.90;11.55;;;30.70;58.20;;;;;;5017147;28;20037;-41
2021/07/12 08:52:48;;;;;;;12.25;11.05;;;30.70;58.20;;;;;;5017508;28;20302;-52
2021/07/12 08:55:14;;;;;;;12.55;11.13;;;30.60;58.20;;;;;;5016948;28;20029;-49
2021/07/12 08:57:54;;;;;;;14.07;11.13;;;30.60;58.40;;;;;;5016982;28;20159;-42
2021/07/12 09:00:34;;;;;;;11.73;10.52;;;30.60;58.50;;;;;;5016652;28;20026;-53
2021/07/12 09:03:14;;;;;;;;;;;30.60;59.10;;;;;;4998030;28;20165;-53
2021/07/12 09:06:01;;;;;;;13.20;11.43;;;30.60;59.10;;;;;;4997468;28;19906;-51
2021/07/12 09:08:45;;;;;;;11.57;10.38;;;30.60;58.60;;;;;;4997347;28;20038;-42
2021/07/12 09:11:18;;;;;;;12.35;11.07;;;30.50;59.40;;;;;;4997709;28;20026;-42
2021/07/12 09:13:44;;;;;;;14.07;11.15;;;30.50;59.00;;;;;;5014136;28;20041;-50
2021/07/12 09:16:34;;;;;;;11.23;10.13;;;30.50;59.50;;;;;;5016533;28;20113;-49
2021/07/12 09:19:07;;;;;;;11.55;9.73;;;30.50;59.40;;;;;;5016820;28;20022;-50
2021/07/12 09:21:38;;;;;;;12.57;10.63;;;30.50;58.80;;;;;;5016141;28;20080;-41
2021/07/12 09:24:23;;;;;;;12.02;10.50;;;30.50;58.40;;;;;;5016314;28;20034;-44
2021/07/12 09:26:52;;;;;;;14.35;10.43;;;30.50;57.90;;;;;;5016871;28;20026;-43
2021/07/12 09:29:20;;;;;;;11.07;10.05;;;30.50;57.60;;;;;;5016490;28;20097;-49
2021/07/12 09:31:46;;;;;;;13.25;10.23;;;30.60;57.40;;;;;;5016718;28;20033;-51
2021/07/12 09:34:12;;;;;;;12.32;10.20;;;30.50;57.30;;;;;;5016744;28;20117;-44
2021/07/12 09:36:38;;;;;;;14.18;10.52;;;30.50;57.60;;;;;;5015757;28;20032;-42
2021/07/12 09:39:17;;;;;;;13.85;10.63;;;30.60;57.40;;;;;;5013022;28;20320;-41
2021/07/12 09:41:45;;;;;;;11.63;10.48;;;30.60;57.00;;;;;;5015863;28;20117;-52
2021/07/12 09:44:10;;;;;;;11.95;10.57;;;30.60;57.30;;;;;;5016173;28;20042;-42
2021/07/12 09:46:36;;;;;;;12.27;11.18;;;30.70;56.50;;;;;;5016252;28;20033;-51
2021/07/12 09:49:10;;;;;;;12.15;10.60;;;30.60;56.60;;;;;;5015250;28;20334;-49
2021/07/12 09:51:36;;;;;;;10.90;9.80;;;30.50;56.80;;;;;;5016083;28;20050;-49
2021/07/12 09:54:22;;;;;;;13.02;11.00;;;30.50;57.30;;;;;;5015857;28;20068;-42
2021/07/12 09:56:49;;;;;;;11.93;10.73;;;30.50;57.90;;;;;;5016014;28;20117;-43
2021/07/12 09:59:16;;;;;;;14.05;11.40;;;30.50;57.80;;;;;;5015848;28;20373;-52
2021/07/12 10:02:15;;;;;;;19.02;16.98;;;30.50;58.10;;;;;;5015736;28;20070;-42
2021/07/12 10:04:40;;;;;;;20.02;15.00;;;30.60;56.90;;;;;;5014754;28;20033;-41
2021/07/12 10:07:06;;;;;;;11.40;10.30;;;30.70;57.00;;;;;;5012296;28;20050;-42
2021/07/12 10:09:32;;;;;;;11.02;9.50;;;30.70;57.10;;;;;;5012109;28;20309;-42
2021/07/12 10:11:58;;;;;;;9.50;8.20;;;30.70;55.80;;;;;;5015745;28;20029;-48
2021/07/12 10:14:24;;;;;;;15.30;9.68;;;30.80;55.80;;;;;;5015263;28;20053;-44
2021/07/12 10:16:51;;;;;;;10.13;7.70;;;30.80;55.80;;;;;;5015336;28;20424;-53
2021/07/12 10:19:17;;;;;;;10.98;8.43;;;30.80;55.50;;;;;;5014698;28;20054;-52
2021/07/12 10:21:52;;;;;;;11.02;9.20;;;30.80;56.30;;;;;;5015843;28;20029;-42
2021/07/12 10:24:24;;;;;;;12.65;9.35;;;30.90;55.90;;;;;;5014440;28;20042;-51
2021/07/12 10:26:58;;;;;;;10.63;9.63;;;30.90;55.90;;;;;;5010761;28;20049;-52
2021/07/12 10:29:27;;;;;;;9.70;8.52;;;31.00;54.80;;;;;;5015395;28;20061;-41
2021/07/12 10:31:58;;;;;;;14.85;11.75;;;31.10;54.90;;;;;;5014868;28;20025;-42
2021/07/12 10:34:31;;;;;;;13.27;8.55;;;31.10;54.40;;;;;;5015323;28;20109;-40
2021/07/12 10:37:18;;;;;;;8.20;7.40;;;31.20;54.10;;;;;;5018235;28;20026;-49
2021/07/12 10:40:06;;;;;;;8.60;7.65;;;31.30;54.20;;;;;;5019018;28;20037;-48
2021/07/12 10:42:53;;;;;;;9.23;8.30;;;31.40;54.00;;;;;;5020062;28;20293;-48
2021/07/12 10:45:22;;;;;;;8.68;7.78;;;31.50;53.80;;;;;;5019696;28;20038;-49
2021/07/12 10:47:57;;;;;;;9.13;8.07;;;31.50;53.80;;;;;;5019685;28;20030;-49
2021/07/12 10:50:35;;;;;;;8.55;7.75;;;31.60;53.30;;;;;;5019712;28;20377;-52
2021/07/12 10:53:02;;;;;;;10.05;8.40;;;31.70;53.40;;;;;;5019472;28;20038;-51
2021/07/12 10:55:33;;;;;;;9.05;8.15;;;31.70;53.40;;;;;;5019437;28;20317;-49
2021/07/12 10:58:17;;;;;;;9.10;8.02;;;31.80;53.50;;;;;;5019705;28;20034;-50
2021/07/12 11:00:44;;;;;;;9.75;7.93;;;31.80;53.80;;;;;;5019634;28;20029;-43
2021/07/12 11:03:36;;;;;;;8.85;7.82;;;31.90;52.80;;;;;;5018649;28;20026;-52
2021/07/12 11:06:13;;;;;;;8.88;7.97;;;31.90;52.30;;;;;;5019422;28;20034;-51
2021/07/12 11:08:44;;;;;;;8.02;7.28;;;32.00;52.00;;;;;;5018686;28;20518;-44
2021/07/12 11:11:12;;;;;;;9.20;7.32;;;32.00;52.00;;;;;;5019432;28;20326;-44
2021/07/12 11:13:58;;;;;;;10.57;7.97;;;32.10;51.60;;;;;;5018953;28;20058;-41
2021/07/12 11:16:48;;;;;;;8.55;7.75;;;32.20;52.30;;;;;;5019018;28;20034;-42
2021/07/12 11:19:31;;;;;;;;;;;32.30;51.90;;;;;;5019580;28;20053;-53
2021/07/12 11:22:15;;;;;;;8.77;7.20;;;32.30;52.10;;;;;;5019343;28;19909;-51
2021/07/12 11:25:03;;;;;;;8.07;6.78;;;32.40;52.50;;;;;;5018345;28;20073;-41
2021/07/12 11:27:40;;;;;;;8.75;7.85;;;32.50;51.20;;;;;;5019081;28;20068;-50
2021/07/12 11:30:29;;;;;;;9.27;7.50;;;32.60;51.40;;;;;;5018908;28;20325;-49
2021/07/12 11:32:55;;;;;;;8.02;7.22;;;32.60;50.50;;;;;;5018692;28;20034;-44
2021/07/12 11:35:22;;;;;;;8.50;6.55;;;32.70;51.30;;;;;;5018123;28;20026;-53
2021/07/12 11:37:49;;;;;;;9.05;7.65;;;32.80;50.70;;;;;;5018722;28;20038;-53
2021/07/12 11:40:16;;;;;;;7.80;7.00;;;33.00;50.40;;;;;;5018515;28;20060;-47
2021/07/12 11:42:42;;;;;;;7.45;6.65;;;33.10;50.30;;;;;;5019007;28;20030;-43
2021/07/12 11:45:19;;;;;;;9.02;6.70;;;33.20;50.20;;;;;;5018585;28;20032;-54
2021/07/12 11:47:48;;;;;;;8.13;6.70;;;33.40;49.70;;;;;;5018165;28;20050;-54
2021/07/12 11:50:29;;;;;;;9.23;7.13;;;33.50;50.00;;;;;;5018118;28;20033;-52
2021/07/12 11:53:03;;;;;;;7.90;6.55;;;33.70;49.00;;;;;;5018647;28;20084;-49
2021/07/12 11:55:31;;;;;;;7.50;6.72;;;33.90;48.90;;;;;;5018659;28;20080;-51
2021/07/12 11:58:00;;;;;;;9.52;6.57;;;34.00;48.60;;;;;;5018031;28;20030;-51
2021/07/12 12:00:44;;;;;;;7.10;6.20;;;34.10;48.10;;;;;;5017593;28;20026;-40
2021/07/12 12:03:13;;;;;;;9.13;7.70;;;34.30;48.60;;;;;;4998561;28;20073;-45
2021/07/12 12:05:41;;;;;;;8.70;6.60;;;34.40;48.00;;;;;;5008896;28;20036;-41
2021/07/12 12:08:13;;;;;;;7.22;6.50;;;34.60;48.30;;;;;;5011013;28;20037;-42
2021/07/12 12:10:40;;;;;;;7.10;6.40;;;34.70;47.30;;;;;;5018182;28;20064;-53
2021/07/12 12:13:20;;;;;;;7.85;7.07;;;34.70;47.20;;;;;;5017048;28;20053;-43
2021/07/12 12:15:51;;;;;;;7.88;6.28;;;34.80;47.10;;;;;;5017891;28;20041;-51
2021/07/12 12:18:20;;;;;;;7.15;6.20;;;34.80;46.90;;;;;;5017772;28;20034;-43
2021/07/12 12:20:51;;;;;;;9.68;7.10;;;34.90;46.70;;;;;;5017613;28;20056;-43
2021/07/12 12:23:17;;;;;;;8.75;6.90;;;35.00;46.40;;;;;;5017287;28;20045;-49
2021/07/12 12:25:56;;;;;;;7.20;6.50;;;35.10;46.50;;;;;;5018096;28;20025;-49
2021/07/12 12:28:27;;;;;;;7.28;6.55;;;35.10;46.50;;;;;;5017047;28;20413;-52
2021/07/12 12:30:55;;;;;;;9.43;7.32;;;35.30;46.60;;;;;;5017547;28;20057;-42
2021/07/12 12:33:29;;;;;;;9.02;7.15;;;35.40;46.30;;;;;;5016976;28;20084;-49
2021/07/12 12:36:06;;;;;;;8.32;6.80;;;35.60;45.80;;;;;;5017248;28;20030;-49
2021/07/12 12:38:32;;;;;;;11.45;7.60;;;35.70;45.80;;;;;;5016953;28;20038;-41
2021/07/12 12:41:08;;;;;;;9.43;8.32;;;35.70;46.20;;;;;;5017113;28;20034;-51
2021/07/12 12:43:36;;;;;;;16.17;8.38;;;35.70;47.00;;;;;;5015411;28;20038;-52
2021/07/12 12:46:04;;;;;;;9.35;7.70;;;35.70;47.80;;;;;;5017166;28;20037;-51
2021/07/12 12:48:31;;;;;;;9.25;8.25;;;35.70;48.10;;;;;;5016752;28;20120;-41